Time;durP1;ratioP1;P1;durP2;ratioP2;P2;SDS_P1;SDS_P2;PMS_P1;PMS_P2;Temp;Humidity;BMP_temperature;BMP_pressure;BME280_temperature;BME280_humidity;BME280_pressure;Samples;Min_cycle;Max_cycle;Signal;HPM_P1;HPM_P2
2022/11/15 00:00:29;;;;;;;0.10;0.10;;;8.50;99.90;;;;;;5080056;28;20244;-85
2022/11/15 00:02:55;;;;;;;0.10;0.10;;;8.60;99.90;;;;;;5099652;28;20256;-84
2022/11/15 00:05:21;;;;;;;0.57;0.57;;;8.70;99.90;;;;;;5097010;28;20658;-84
2022/11/15 00:07:47;;;;;;;0.10;0.10;;;8.70;99.90;;;;;;5084618;28;20219;-84
2022/11/15 00:10:12;;;;;;;0.10;0.10;;;8.80;99.90;;;;;;5091492;28;20216;-84
2022/11/15 00:12:38;;;;;;;0.10;0.10;;;8.70;99.90;;;;;;5082812;28;20184;-85
2022/11/15 00:15:04;;;;;;;0.10;0.10;;;8.60;99.90;;;;;;5089586;28;20895;-84
2022/11/15 00:17:30;;;;;;;0.10;0.10;;;8.50;99.90;;;;;;5106631;28;20198;-84
2022/11/15 00:19:56;;;;;;;0.10;0.10;;;8.40;99.90;;;;;;5093733;28;20199;-84
2022/11/15 00:22:21;;;;;;;0.10;0.10;;;8.40;99.90;;;;;;5099597;28;20203;-84
2022/11/15 00:24:47;;;;;;;0.00;0.00;;;8.40;99.90;;;;;;5083523;28;20218;-86
2022/11/15 00:27:12;;;;;;;0.10;0.10;;;8.40;99.90;;;;;;5091320;28;20208;-85
2022/11/15 00:29:42;;;;;;;0.10;0.10;;;8.40;99.90;;;;;;5100914;28;20232;-86
2022/11/15 00:32:11;;;;;;;0.10;0.10;;;8.40;99.90;;;;;;5103970;28;20670;-86
2022/11/15 00:34:37;;;;;;;0.10;0.10;;;8.50;99.90;;;;;;5082931;28;20213;-85
2022/11/15 00:37:02;;;;;;;0.00;0.00;;;8.50;99.90;;;;;;5101702;28;20242;-85
2022/11/15 00:39:28;;;;;;;0.10;0.10;;;8.50;99.90;;;;;;5096808;28;20200;-86
2022/11/15 00:41:53;;;;;;;0.10;0.10;;;8.60;99.90;;;;;;5110564;28;20229;-86
2022/11/15 00:44:19;;;;;;;0.10;0.10;;;8.50;99.90;;;;;;5100940;28;20191;-85
2022/11/15 00:46:44;;;;;;;0.10;0.10;;;8.60;99.90;;;;;;5089631;28;20178;-86
2022/11/15 00:49:10;;;;;;;0.10;0.10;;;8.60;99.90;;;;;;5095870;28;20248;-85
2022/11/15 00:51:35;;;;;;;0.10;0.10;;;8.60;99.90;;;;;;5107530;28;20192;-84
2022/11/15 00:54:01;;;;;;;0.10;0.10;;;8.70;99.90;;;;;;5089272;28;20185;-85
2022/11/15 00:56:26;;;;;;;0.10;0.10;;;8.70;99.90;;;;;;5107020;28;20202;-86
2022/11/15 00:58:53;;;;;;;0.10;0.10;;;8.60;99.90;;;;;;5086656;28;20200;-85
2022/11/15 01:01:18;;;;;;;0.10;0.10;;;8.50;99.90;;;;;;5108037;28;20186;-85
2022/11/15 01:03:44;;;;;;;0.10;0.10;;;8.50;99.90;;;;;;5083055;28;20206;-84
2022/11/15 01:06:10;;;;;;;0.10;0.10;;;8.40;99.90;;;;;;5105288;28;20189;-84
2022/11/15 01:08:37;;;;;;;0.10;0.10;;;8.50;99.90;;;;;;5105456;28;20190;-85
2022/11/15 01:11:05;;;;;;;2.13;2.10;;;8.60;99.90;;;;;;5094161;28;20265;-85
2022/11/15 01:13:35;;;;;;;0.10;0.10;;;8.60;99.90;;;;;;5100154;28;20184;-85
2022/11/15 01:16:16;;;;;;;0.07;0.07;;;8.60;99.90;;;;;;5089202;28;20667;-86
2022/11/15 01:18:43;;;;;;;0.10;0.10;;;8.70;99.90;;;;;;5096105;28;20197;-85
2022/11/15 01:21:10;;;;;;;0.10;0.10;;;8.80;99.90;;;;;;5087400;28;20272;-85
2022/11/15 01:23:36;;;;;;;0.10;0.10;;;8.90;99.90;;;;;;5093487;28;20174;-85
2022/11/15 01:26:04;;;;;;;0.10;0.10;;;9.00;99.90;;;;;;5103902;28;20193;-84
2022/11/15 01:28:35;;;;;;;0.10;0.10;;;9.10;99.90;;;;;;5105409;28;20202;-85
2022/11/15 01:31:02;;;;;;;0.10;0.10;;;9.20;99.90;;;;;;5100300;28;20259;-85
2022/11/15 01:33:28;;;;;;;0.00;0.00;;;9.00;99.90;;;;;;5105393;28;20415;-84
2022/11/15 01:35:55;;;;;;;0.10;0.10;;;9.00;99.90;;;;;;5100302;28;20179;-85
2022/11/15 01:38:21;;;;;;;0.10;0.10;;;8.90;99.90;;;;;;5102757;28;20299;-85
2022/11/15 01:40:46;;;;;;;0.10;0.10;;;8.90;99.90;;;;;;5096850;28;20206;-85
2022/11/15 01:43:24;;;;;;;0.10;0.10;;;8.90;99.90;;;;;;5108490;28;20180;-84
2022/11/15 01:45:56;;;;;;;0.00;0.00;;;9.00;99.90;;;;;;5083061;28;20176;-85
2022/11/15 01:48:22;;;;;;;0.10;0.10;;;9.10;99.90;;;;;;5092656;28;20214;-84
2022/11/15 01:50:49;;;;;;;0.10;0.10;;;9.10;99.90;;;;;;5099144;28;20197;-85
2022/11/15 01:53:15;;;;;;;0.10;0.10;;;9.20;99.90;;;;;;5103318;28;20180;-86
2022/11/15 01:55:40;;;;;;;0.10;0.10;;;9.20;99.90;;;;;;5097825;28;20210;-86
2022/11/15 01:58:07;;;;;;;0.10;0.10;;;9.20;99.90;;;;;;5092240;28;20629;-85
2022/11/15 02:00:32;;;;;;;0.10;0.10;;;9.20;99.90;;;;;;5099176;28;20225;-85
2022/11/15 02:02:58;;;;;;;0.10;0.10;;;9.10;99.90;;;;;;5102754;28;20651;-85
2022/11/15 02:05:24;;;;;;;0.10;0.10;;;9.10;99.90;;;;;;5089018;28;20618;-85
2022/11/15 02:07:50;;;;;;;0.10;0.10;;;9.20;99.90;;;;;;5100650;28;20736;-86
2022/11/15 02:10:21;;;;;;;0.10;0.10;;;9.30;99.90;;;;;;5099016;28;20210;-85
2022/11/15 02:12:48;;;;;;;0.10;0.10;;;9.40;99.90;;;;;;5090567;28;20190;-85
2022/11/15 02:15:14;;;;;;;0.10;0.10;;;9.30;99.90;;;;;;5098939;28;20191;-85
2022/11/15 02:17:57;;;;;;;0.10;0.10;;;9.30;99.90;;;;;;5107367;28;20569;-85
2022/11/15 02:20:43;;;;;;;0.10;0.10;;;9.30;99.90;;;;;;5096858;28;20229;-85
2022/11/15 02:23:41;;;;;;;0.10;0.10;;;9.40;99.90;;;;;;5098223;28;20183;-85
2022/11/15 02:26:24;;;;;;;0.10;0.10;;;9.40;99.90;;;;;;5098545;28;20245;-84
2022/11/15 02:29:11;;;;;;;0.10;0.10;;;9.40;99.90;;;;;;5095340;28;20561;-84
2022/11/15 02:31:58;;;;;;;0.10;0.10;;;9.20;99.90;;;;;;5094137;28;20190;-85
2022/11/15 02:34:50;;;;;;;0.00;0.00;;;9.20;99.90;;;;;;5093492;28;20190;-85
2022/11/15 02:37:19;;;;;;;0.10;0.10;;;9.10;99.90;;;;;;5090042;28;20206;-85
2022/11/15 02:39:58;;;;;;;0.10;0.10;;;9.20;99.90;;;;;;5084706;28;20211;-85
2022/11/15 02:45:18;;;;;;;0.10;0.10;;;9.20;99.90;;;;;;5117281;28;20246;-84
2022/11/15 02:47:47;;;;;;;0.10;0.10;;;9.00;99.90;;;;;;5100145;28;20592;-85
2022/11/15 02:50:18;;;;;;;0.10;0.10;;;9.10;99.90;;;;;;5107555;28;20212;-85
2022/11/15 02:52:48;;;;;;;0.07;0.07;;;9.10;99.90;;;;;;5105222;28;20191;-85
2022/11/15 02:55:33;;;;;;;0.10;0.10;;;9.30;99.90;;;;;;5083956;28;20743;-84
2022/11/15 02:57:59;;;;;;;1.23;1.23;;;9.20;99.90;;;;;;5094360;28;20302;-85
2022/11/15 03:00:24;;;;;;;0.10;0.10;;;9.10;99.90;;;;;;5101651;28;20224;-85
2022/11/15 03:02:53;;;;;;;0.00;0.00;;;9.20;99.90;;;;;;5093330;28;20521;-85
2022/11/15 03:05:39;;;;;;;0.00;0.00;;;9.20;99.90;;;;;;5097569;28;20270;-85
2022/11/15 03:08:29;;;;;;;0.10;0.10;;;9.30;99.90;;;;;;5087508;28;20187;-85
2022/11/15 03:11:16;;;;;;;0.10;0.10;;;9.30;99.90;;;;;;5094361;28;20198;-85
2022/11/15 03:13:54;;;;;;;0.10;0.10;;;9.20;99.90;;;;;;5106538;28;20272;-85
2022/11/15 03:16:25;;;;;;;0.10;0.10;;;9.20;99.90;;;;;;5105103;28;20176;-85
2022/11/15 03:18:57;;;;;;;0.10;0.10;;;9.20;99.90;;;;;;5106210;28;20191;-85
2022/11/15 03:21:24;;;;;;;0.10;0.10;;;9.20;99.90;;;;;;5085992;28;20196;-85
2022/11/15 03:23:52;;;;;;;0.10;0.10;;;9.20;99.90;;;;;;5097691;28;20255;-85
2022/11/15 03:26:21;;;;;;;0.10;0.10;;;9.20;99.90;;;;;;5098971;28;20175;-85
2022/11/15 03:28:50;;;;;;;0.10;0.10;;;9.40;99.90;;;;;;5095989;28;20175;-85
2022/11/15 03:34:08;;;;;;;0.10;0.10;;;9.50;99.90;;;;;;5114480;28;20273;-85
2022/11/15 03:36:34;;;;;;;0.10;0.10;;;9.40;99.90;;;;;;5100671;28;20170;-86
2022/11/15 03:39:04;;;;;;;0.10;0.10;;;9.40;99.90;;;;;;5115151;28;20231;-85
2022/11/15 03:41:40;;;;;;;0.10;0.10;;;9.40;99.90;;;;;;5109454;28;20309;-85
2022/11/15 03:44:11;;;;;;;0.10;0.10;;;9.40;99.90;;;;;;5100871;28;20178;-85
2022/11/15 03:46:46;;;;;;;0.10;0.10;;;9.40;99.90;;;;;;5096113;28;20193;-85
2022/11/15 03:49:19;;;;;;;0.10;0.10;;;9.30;99.90;;;;;;5104692;28;20680;-86
2022/11/15 03:51:45;;;;;;;0.10;0.10;;;9.40;99.90;;;;;;5111616;28;20209;-86
2022/11/15 03:54:16;;;;;;;0.10;0.10;;;9.40;99.90;;;;;;5094933;28;20189;-86
2022/11/15 03:56:41;;;;;;;0.10;0.10;;;9.50;99.90;;;;;;5096029;28;20187;-86
2022/11/15 03:59:07;;;;;;;0.10;0.10;;;9.40;99.90;;;;;;5110292;28;20270;-85
2022/11/15 04:01:32;;;;;;;0.10;0.10;;;9.40;99.90;;;;;;5091638;28;20813;-86
2022/11/15 04:03:58;;;;;;;0.10;0.10;;;9.50;99.90;;;;;;5108158;28;20210;-87
2022/11/15 04:06:23;;;;;;;0.10;0.10;;;9.50;99.90;;;;;;5091590;28;20540;-86
2022/11/15 04:08:49;;;;;;;0.10;0.10;;;9.50;99.90;;;;;;5096387;28;20191;-87
2022/11/15 04:11:14;;;;;;;0.10;0.10;;;9.50;99.90;;;;;;5089631;28;20192;-85
2022/11/15 04:13:40;;;;;;;0.10;0.10;;;9.50;99.90;;;;;;5099322;28;20198;-85
2022/11/15 04:16:05;;;;;;;0.10;0.10;;;9.60;99.90;;;;;;5080471;28;20652;-85
2022/11/15 04:18:31;;;;;;;0.10;0.10;;;9.60;99.90;;;;;;5104778;28;20255;-85
2022/11/15 04:26:20;;;;;;;0.10;0.10;;;9.80;99.90;;;;;;5098436;28;20267;-86
2022/11/15 04:31:30;;;;;;;0.10;0.10;;;9.70;99.90;;;;;;5101446;28;20174;-85
2022/11/15 04:33:56;;;;;;;0.10;0.10;;;9.70;99.90;;;;;;5105506;28;20177;-85
2022/11/15 04:39:06;;;;;;;0.10;0.10;;;9.90;99.90;;;;;;5103551;28;20717;-85
2022/11/15 04:41:32;;;;;;;0.10;0.10;;;9.90;99.90;;;;;;5096422;28;20175;-85
2022/11/15 04:43:58;;;;;;;0.10;0.10;;;9.90;99.90;;;;;;5090598;28;20188;-85
2022/11/15 04:46:24;;;;;;;0.10;0.10;;;9.90;99.90;;;;;;5095901;28;20241;-86
2022/11/15 04:48:50;;;;;;;0.10;0.10;;;10.00;99.90;;;;;;5106317;28;20183;-84
2022/11/15 04:51:16;;;;;;;0.10;0.10;;;10.00;99.90;;;;;;5110847;28;20206;-85
2022/11/15 04:53:42;;;;;;;0.10;0.10;;;10.00;99.90;;;;;;5091598;28;20207;-85
2022/11/15 04:56:08;;;;;;;0.10;0.10;;;10.10;99.90;;;;;;5109489;28;20196;-87
2022/11/15 04:58:34;;;;;;;0.10;0.10;;;10.10;99.90;;;;;;5089064;28;20206;-85
2022/11/15 05:01:07;;;;;;;0.10;0.10;;;10.00;99.90;;;;;;5108329;28;20203;-86
2022/11/15 05:06:17;;;;;;;0.03;0.03;;;9.90;99.90;;;;;;5094285;28;20362;-86
2022/11/15 05:08:42;;;;;;;0.10;0.10;;;9.90;99.90;;;;;;5098420;28;20707;-85
2022/11/15 05:11:08;;;;;;;0.10;0.10;;;9.90;99.90;;;;;;5105754;28;20563;-86
2022/11/15 05:13:33;;;;;;;0.10;0.10;;;9.80;99.90;;;;;;5100652;28;20179;-86
2022/11/15 05:15:59;;;;;;;0.10;0.10;;;9.70;99.90;;;;;;5103163;28;20183;-85
2022/11/15 05:18:24;;;;;;;0.10;0.10;;;9.60;99.90;;;;;;5106115;28;20203;-85
2022/11/15 05:20:50;;;;;;;0.07;0.07;;;9.50;99.90;;;;;;5094211;28;20221;-85
2022/11/15 05:23:16;;;;;;;0.10;0.10;;;9.40;99.90;;;;;;5097368;28;20179;-85
2022/11/15 05:25:41;;;;;;;0.10;0.10;;;9.40;99.90;;;;;;5095812;28;20550;-85
2022/11/15 05:28:07;;;;;;;0.10;0.10;;;9.50;99.90;;;;;;5092303;28;20236;-85
2022/11/15 05:30:32;;;;;;;0.10;0.10;;;9.50;99.90;;;;;;5081092;28;20223;-85
2022/11/15 05:32:58;;;;;;;0.10;0.10;;;9.60;99.90;;;;;;5091258;28;20186;-86
2022/11/15 05:35:34;;;;;;;0.10;0.10;;;9.80;99.90;;;;;;5101465;28;20182;-85
2022/11/15 05:38:00;;;;;;;0.10;0.10;;;9.90;99.90;;;;;;5108626;28;20691;-85
2022/11/15 05:40:27;;;;;;;0.10;0.10;;;9.80;99.90;;;;;;5083749;28;20210;-85
2022/11/15 05:42:53;;;;;;;0.10;0.10;;;9.90;99.90;;;;;;5106624;28;20179;-86
2022/11/15 05:45:19;;;;;;;0.07;0.07;;;10.00;99.90;;;;;;5088707;28;20175;-85
2022/11/15 05:47:45;;;;;;;0.10;0.10;;;10.00;99.90;;;;;;5096802;28;20174;-86
2022/11/15 05:50:16;;;;;;;0.00;0.00;;;10.00;99.90;;;;;;5090765;28;20202;-86
2022/11/15 05:52:42;;;;;;;0.10;0.10;;;10.00;99.90;;;;;;5096706;28;20184;-85
2022/11/15 05:55:09;;;;;;;0.10;0.10;;;9.90;99.90;;;;;;5100656;28;20206;-86
2022/11/15 05:57:35;;;;;;;0.00;0.00;;;10.00;99.90;;;;;;5100050;28;20217;-86
2022/11/15 06:00:01;;;;;;;0.10;0.10;;;10.10;99.90;;;;;;5106531;28;20203;-85
2022/11/15 06:02:27;;;;;;;0.07;0.07;;;10.10;99.90;;;;;;5102093;28;20228;-86
2022/11/15 06:04:52;;;;;;;0.10;0.10;;;10.10;99.90;;;;;;5089669;28;20441;-85
2022/11/15 06:07:18;;;;;;;0.10;0.10;;;10.10;99.90;;;;;;5094651;28;20242;-86
2022/11/15 06:09:43;;;;;;;0.10;0.10;;;10.00;99.90;;;;;;5110518;28;20218;-86
2022/11/15 06:12:09;;;;;;;0.10;0.10;;;9.90;99.90;;;;;;5101082;28;20194;-86
2022/11/15 06:14:34;;;;;;;0.10;0.10;;;9.90;99.90;;;;;;5090836;28;20182;-86
2022/11/15 06:17:00;;;;;;;0.10;0.10;;;9.90;99.90;;;;;;5106645;28;20187;-85
2022/11/15 06:19:25;;;;;;;0.10;0.10;;;9.80;99.90;;;;;;5078484;28;20209;-85
2022/11/15 06:21:51;;;;;;;0.00;0.00;;;9.80;99.90;;;;;;5096001;28;20179;-86
2022/11/15 06:24:16;;;;;;;0.10;0.10;;;9.80;99.90;;;;;;5105197;28;20194;-86
2022/11/15 06:26:42;;;;;;;0.10;0.10;;;9.90;99.90;;;;;;5096128;28;20171;-85
2022/11/15 06:29:07;;;;;;;0.10;0.10;;;9.90;99.90;;;;;;5100953;28;20241;-86
2022/11/15 06:31:34;;;;;;;0.10;0.10;;;9.90;99.90;;;;;;5097756;28;20179;-85
2022/11/15 06:33:59;;;;;;;0.10;0.10;;;9.90;99.90;;;;;;5098902;28;20211;-84
2022/11/15 06:36:25;;;;;;;0.10;0.10;;;9.80;99.90;;;;;;5103925;28;20599;-86
2022/11/15 06:38:51;;;;;;;0.10;0.10;;;9.90;99.90;;;;;;5106308;28;20194;-85
2022/11/15 06:41:17;;;;;;;0.10;0.10;;;9.90;99.90;;;;;;5095249;28;20550;-85
2022/11/15 06:43:43;;;;;;;0.10;0.10;;;9.90;99.90;;;;;;5090826;28;20186;-85
2022/11/15 06:46:09;;;;;;;0.10;0.10;;;10.10;99.90;;;;;;5082301;28;20189;-86
2022/11/15 06:48:36;;;;;;;0.10;0.10;;;10.20;99.90;;;;;;5104888;28;20274;-85
2022/11/15 06:51:03;;;;;;;0.10;0.10;;;10.20;99.90;;;;;;5096840;28;20198;-86
2022/11/15 06:53:30;;;;;;;0.00;0.00;;;10.10;99.90;;;;;;5106386;28;20187;-85
2022/11/15 06:56:00;;;;;;;0.10;0.10;;;10.10;99.90;;;;;;5106880;28;20594;-86
2022/11/15 06:58:26;;;;;;;0.03;0.03;;;10.20;99.90;;;;;;5088337;28;20237;-85
2022/11/15 07:00:51;;;;;;;0.10;0.10;;;10.30;99.90;;;;;;5104070;28;20202;-86
2022/11/15 07:03:17;;;;;;;0.10;0.10;;;10.20;99.90;;;;;;5088615;28;20262;-85
2022/11/15 07:05:51;;;;;;;0.10;0.10;;;10.20;99.90;;;;;;5088494;28;20183;-85
2022/11/15 07:08:16;;;;;;;0.10;0.10;;;10.20;99.90;;;;;;5100642;28;20553;-86
2022/11/15 07:10:42;;;;;;;0.10;0.10;;;10.20;99.90;;;;;;5094279;28;20203;-86
2022/11/15 07:13:07;;;;;;;0.10;0.10;;;10.30;99.90;;;;;;5097676;28;20176;-85
2022/11/15 07:15:33;;;;;;;0.10;0.10;;;10.30;99.90;;;;;;5106670;27;20189;-86
2022/11/15 07:18:01;;;;;;;0.10;0.10;;;10.30;99.90;;;;;;5093212;28;20241;-86
2022/11/15 07:20:27;;;;;;;0.10;0.10;;;10.20;99.90;;;;;;5104018;28;20294;-84
2022/11/15 07:23:00;;;;;;;0.10;0.10;;;10.30;99.90;;;;;;5101729;28;20270;-86
2022/11/15 07:25:26;;;;;;;0.10;0.10;;;10.30;99.90;;;;;;5089679;28;20583;-85
2022/11/15 07:27:59;;;;;;;0.10;0.10;;;10.30;99.90;;;;;;5091856;28;20250;-86
2022/11/15 07:30:25;;;;;;;0.10;0.10;;;10.20;99.90;;;;;;5092136;28;20285;-86
2022/11/15 07:32:58;;;;;;;0.10;0.10;;;10.20;99.90;;;;;;5090405;28;20183;-86
2022/11/15 07:35:25;;;;;;;0.10;0.10;;;10.20;99.90;;;;;;5098317;28;20239;-86
2022/11/15 07:38:04;;;;;;;0.10;0.10;;;10.20;99.90;;;;;;5092504;28;20234;-85
2022/11/15 07:40:31;;;;;;;0.10;0.10;;;10.30;99.90;;;;;;5097140;28;20210;-85
2022/11/15 07:43:05;;;;;;;0.10;0.10;;;10.30;99.90;;;;;;5096355;28;20217;-87
2022/11/15 07:45:33;;;;;;;0.10;0.10;;;10.50;99.90;;;;;;5096835;28;20244;-85
2022/11/15 07:47:59;;;;;;;0.10;0.10;;;10.50;99.90;;;;;;5099272;28;20190;-84
2022/11/15 07:50:25;;;;;;;0.10;0.10;;;10.60;99.90;;;;;;5085431;28;20211;-85
2022/11/15 07:52:55;;;;;;;0.10;0.10;;;10.60;99.90;;;;;;5091717;28;20253;-86
2022/11/15 07:55:25;;;;;;;0.07;0.07;;;10.60;99.90;;;;;;5083944;28;20192;-85
2022/11/15 07:57:51;;;;;;;0.10;0.10;;;10.70;99.90;;;;;;5099823;28;20211;-85
2022/11/15 08:00:17;;;;;;;0.10;0.10;;;10.70;99.90;;;;;;5096590;28;20204;-85
2022/11/15 08:02:43;;;;;;;0.10;0.10;;;10.90;99.90;;;;;;5080927;28;20265;-84
2022/11/15 08:05:09;;;;;;;0.00;0.00;;;10.90;99.90;;;;;;5096294;28;20338;-86
2022/11/15 08:07:34;;;;;;;0.10;0.10;;;10.90;99.90;;;;;;5095245;28;20183;-85
2022/11/15 08:10:01;;;;;;;0.10;0.10;;;10.80;99.90;;;;;;5096185;28;20571;-86
2022/11/15 08:12:28;;;;;;;0.10;0.10;;;10.80;99.90;;;;;;5109376;28;20184;-86
2022/11/15 08:14:55;;;;;;;0.10;0.10;;;10.80;99.90;;;;;;5095940;28;20186;-86
2022/11/15 08:17:20;;;;;;;0.10;0.10;;;10.80;99.90;;;;;;5095808;28;20203;-87
2022/11/15 08:19:46;;;;;;;0.03;0.03;;;10.70;99.90;;;;;;5094346;28;20200;-85
2022/11/15 08:22:12;;;;;;;0.10;0.10;;;10.70;99.90;;;;;;5091883;28;20175;-86
2022/11/15 08:24:37;;;;;;;0.10;0.10;;;10.80;99.90;;;;;;5105152;28;20600;-86
2022/11/15 08:27:03;;;;;;;0.10;0.10;;;10.80;99.90;;;;;;5098612;28;20215;-86
2022/11/15 08:29:28;;;;;;;0.10;0.10;;;10.90;99.90;;;;;;5079034;28;20207;-86
2022/11/15 08:31:55;;;;;;;0.10;0.10;;;10.80;99.90;;;;;;5091751;28;20173;-85
2022/11/15 08:34:21;;;;;;;0.10;0.10;;;11.00;99.90;;;;;;5098767;28;20187;-86
2022/11/15 08:36:47;;;;;;;0.10;0.10;;;11.20;99.90;;;;;;5091369;28;20611;-85
2022/11/15 08:39:13;;;;;;;0.10;0.10;;;11.10;99.90;;;;;;5077224;28;20220;-86
2022/11/15 08:41:38;;;;;;;2.87;2.77;;;11.10;99.90;;;;;;5083685;28;20176;-86
2022/11/15 08:44:04;;;;;;;0.10;0.10;;;11.10;99.90;;;;;;5075474;28;20181;-86
2022/11/15 08:46:30;;;;;;;0.10;0.10;;;11.10;99.90;;;;;;5085273;28;20235;-87
2022/11/15 08:48:56;;;;;;;0.10;0.10;;;11.20;99.90;;;;;;5096936;28;20177;-86
2022/11/15 08:51:21;;;;;;;0.10;0.10;;;11.40;99.90;;;;;;5089634;28;20187;-85
2022/11/15 08:53:47;;;;;;;0.10;0.10;;;11.60;99.90;;;;;;5087810;28;20539;-86
2022/11/15 08:56:14;;;;;;;0.10;0.10;;;11.60;99.90;;;;;;5099650;28;20192;-86
2022/11/15 08:58:40;;;;;;;0.10;0.10;;;11.50;99.90;;;;;;5105850;28;20196;-86
2022/11/15 09:01:06;;;;;;;0.10;0.10;;;11.40;99.90;;;;;;5091269;28;20200;-85
2022/11/15 09:03:32;;;;;;;0.10;0.10;;;11.40;99.90;;;;;;5101058;28;20183;-86
2022/11/15 09:06:00;;;;;;;0.10;0.10;;;11.40;99.90;;;;;;5101740;28;20230;-86
2022/11/15 09:08:29;;;;;;;0.10;0.10;;;11.30;99.90;;;;;;5102472;28;20609;-85
2022/11/15 09:10:54;;;;;;;0.10;0.10;;;11.30;99.90;;;;;;5090368;28;20240;-86
2022/11/15 09:13:20;;;;;;;0.10;0.10;;;11.30;99.90;;;;;;5098615;28;20561;-86
2022/11/15 09:15:45;;;;;;;0.10;0.10;;;11.30;99.90;;;;;;5097322;28;20228;-86
2022/11/15 09:18:11;;;;;;;0.10;0.10;;;11.30;99.90;;;;;;5096845;28;20243;-85
2022/11/15 09:20:37;;;;;;;0.10;0.10;;;11.40;99.90;;;;;;5096475;28;20770;-86
2022/11/15 09:23:04;;;;;;;0.10;0.10;;;11.40;99.90;;;;;;5098149;28;20189;-85
2022/11/15 09:25:30;;;;;;;0.10;0.10;;;11.60;99.90;;;;;;5111064;28;20180;-86
2022/11/15 09:27:56;;;;;;;0.00;0.00;;;11.70;99.90;;;;;;5075723;28;20650;-86
2022/11/15 09:30:24;;;;;;;0.10;0.10;;;11.70;99.90;;;;;;5092591;28;20208;-85
2022/11/15 09:32:50;;;;;;;0.10;0.10;;;11.90;99.90;;;;;;5104297;28;20658;-86
2022/11/15 09:35:15;;;;;;;0.10;0.10;;;11.90;99.90;;;;;;5101111;28;20205;-85
2022/11/15 09:37:41;;;;;;;0.10;0.10;;;12.10;99.90;;;;;;5085861;28;20200;-86
2022/11/15 09:40:11;;;;;;;0.10;0.10;;;12.20;99.90;;;;;;5107147;28;20203;-86
2022/11/15 09:42:55;;;;;;;0.10;0.10;;;12.30;99.90;;;;;;5095307;28;20180;-86
2022/11/15 09:45:27;;;;;;;0.10;0.10;;;12.50;99.90;;;;;;5109798;28;20600;-85
2022/11/15 09:48:29;;;;;;;0.10;0.10;;;12.50;99.90;;;;;;5100589;28;20247;-85
2022/11/15 09:51:01;;;;;;;0.10;0.10;;;12.10;99.90;;;;;;5102729;28;20209;-85
2022/11/15 09:53:35;;;;;;;0.10;0.10;;;11.80;99.90;;;;;;5093595;28;20180;-86
2022/11/15 09:56:03;;;;;;;0.10;0.10;;;11.80;99.90;;;;;;5092103;28;20591;-86
2022/11/15 09:59:00;;;;;;;0.10;0.10;;;11.70;99.90;;;;;;5106118;28;20261;-85
2022/11/15 10:01:55;;;;;;;0.10;0.10;;;11.80;99.90;;;;;;5098625;28;20179;-85
2022/11/15 10:04:23;;;;;;;0.10;0.10;;;12.10;99.90;;;;;;5091576;28;20238;-85
2022/11/15 10:07:12;;;;;;;0.10;0.10;;;12.10;99.90;;;;;;5101889;28;20206;-85
2022/11/15 10:09:52;;;;;;;0.10;0.10;;;12.30;99.90;;;;;;5092136;28;20204;-86
2022/11/15 10:12:18;;;;;;;0.10;0.10;;;11.90;99.90;;;;;;5106597;28;20215;-86
2022/11/15 10:14:48;;;;;;;0.10;0.10;;;11.70;99.90;;;;;;5097306;28;20634;-86
2022/11/15 10:17:20;;;;;;;0.10;0.10;;;11.90;99.90;;;;;;5087451;28;20195;-86
2022/11/15 10:20:03;;;;;;;0.10;0.10;;;12.10;99.90;;;;;;5086675;28;20673;-86
2022/11/15 10:22:47;;;;;;;0.10;0.10;;;12.00;99.90;;;;;;5088083;28;20184;-86
2022/11/15 10:25:16;;;;;;;0.10;0.10;;;12.00;99.90;;;;;;5105538;28;20184;-85
2022/11/15 10:27:44;;;;;;;0.07;0.07;;;12.10;99.90;;;;;;5088597;28;20177;-86
2022/11/15 10:30:15;;;;;;;0.10;0.10;;;12.10;99.90;;;;;;5106920;28;20207;-86
2022/11/15 10:32:42;;;;;;;0.10;0.10;;;12.20;99.90;;;;;;5086542;28;20177;-85
2022/11/15 10:35:22;;;;;;;0.10;0.10;;;12.20;99.90;;;;;;5089279;28;20180;-85
2022/11/15 10:37:48;;;;;;;0.10;0.10;;;12.10;99.90;;;;;;5099277;28;20203;-86
2022/11/15 10:40:22;;;;;;;0.10;0.10;;;12.20;99.90;;;;;;5091465;28;20227;-86
2022/11/15 10:43:04;;;;;;;0.10;0.10;;;12.50;99.90;;;;;;5104796;28;20704;-86
2022/11/15 10:45:32;;;;;;;0.10;0.10;;;12.60;99.90;;;;;;5087036;28;20172;-86
2022/11/15 10:48:13;;;;;;;0.10;0.10;;;12.60;99.90;;;;;;5104373;28;20191;-86
2022/11/15 10:50:49;;;;;;;0.10;0.10;;;12.70;99.90;;;;;;5098686;28;20572;-86
2022/11/15 10:53:23;;;;;;;0.10;0.10;;;12.90;99.90;;;;;;5104549;28;20205;-86
2022/11/15 10:55:53;;;;;;;0.10;0.10;;;13.00;99.90;;;;;;5100617;28;20674;-86
2022/11/15 10:58:41;;;;;;;0.10;0.10;;;13.00;99.90;;;;;;5105272;28;20230;-86
2022/11/15 11:01:19;;;;;;;0.10;0.10;;;13.30;99.90;;;;;;5097946;28;20204;-86
2022/11/15 11:04:10;;;;;;;0.10;0.10;;;13.00;99.90;;;;;;5100582;28;20179;-85
2022/11/15 11:06:51;;;;;;;0.10;0.10;;;13.00;99.90;;;;;;5090419;28;20803;-86
2022/11/15 11:09:32;;;;;;;0.10;0.10;;;13.10;99.90;;;;;;5099069;28;20214;-86
2022/11/15 11:11:58;;;;;;;0.10;0.10;;;13.20;99.90;;;;;;5093850;28;20209;-85
2022/11/15 11:14:32;;;;;;;0.10;0.10;;;13.20;99.90;;;;;;5097441;28;20184;-86
2022/11/15 11:17:17;;;;;;;0.10;0.10;;;13.10;99.90;;;;;;5096361;28;20374;-86
2022/11/15 11:19:58;;;;;;;0.10;0.10;;;12.90;99.90;;;;;;5096595;28;20699;-85
2022/11/15 11:22:38;;;;;;;0.10;0.10;;;12.90;99.90;;;;;;5097825;28;20192;-85
2022/11/15 11:25:14;;;;;;;0.10;0.10;;;12.80;99.90;;;;;;5084636;28;20193;-85
2022/11/15 11:27:54;;;;;;;0.10;0.10;;;12.90;99.90;;;;;;5095699;28;20178;-87
2022/11/15 11:30:29;;;;;;;0.10;0.10;;;13.10;99.90;;;;;;5100642;28;20760;-85
2022/11/15 11:33:13;;;;;;;0.10;0.10;;;13.00;99.90;;;;;;5102100;28;20178;-86
2022/11/15 11:35:45;;;;;;;0.10;0.10;;;12.90;99.90;;;;;;5102511;28;20241;-86
2022/11/15 11:38:29;;;;;;;0.10;0.10;;;13.00;99.90;;;;;;5092055;28;20197;-86
2022/11/15 11:41:14;;;;;;;0.10;0.10;;;12.90;99.90;;;;;;5099326;28;20249;-86
2022/11/15 11:43:52;;;;;;;0.10;0.10;;;13.20;99.90;;;;;;5097564;28;20178;-86
2022/11/15 11:46:48;;;;;;;0.10;0.10;;;13.30;99.90;;;;;;5105280;28;20657;-85
2022/11/15 11:49:32;;;;;;;0.10;0.10;;;13.50;99.90;;;;;;5105715;28;20742;-85
2022/11/15 11:52:16;;;;;;;0.10;0.10;;;13.70;99.90;;;;;;5087283;28;20180;-86
2022/11/15 11:55:01;;;;;;;0.10;0.10;;;13.80;99.90;;;;;;5095527;28;20306;-86
2022/11/15 11:57:53;;;;;;;0.10;0.10;;;13.90;99.90;;;;;;5106628;28;20238;-85
2022/11/15 12:00:20;;;;;;;0.10;0.10;;;14.10;99.90;;;;;;5090915;28;20201;-85
2022/11/15 12:03:07;;;;;;;0.10;0.10;;;14.20;99.90;;;;;;5079599;28;20706;-86
2022/11/15 12:05:44;;;;;;;0.10;0.10;;;14.30;99.90;;;;;;5077787;28;20194;-86
2022/11/15 12:08:21;;;;;;;0.10;0.10;;;14.20;99.90;;;;;;5098087;28;20215;-86
2022/11/15 12:10:57;;;;;;;0.00;0.00;;;14.20;99.90;;;;;;5093116;28;20205;-86
2022/11/15 12:13:28;;;;;;;0.10;0.10;;;14.30;99.90;;;;;;5094914;28;20255;-86
2022/11/15 12:16:05;;;;;;;0.10;0.10;;;14.10;99.90;;;;;;5099532;28;20216;-86
2022/11/15 12:18:30;;;;;;;0.10;0.10;;;14.10;99.90;;;;;;5095465;28;20689;-86
2022/11/15 12:21:34;;;;;;;0.10;0.10;;;14.10;99.90;;;;;;5099457;28;20196;-86
2022/11/15 12:24:06;;;;;;;0.10;0.10;;;13.90;99.90;;;;;;5097532;28;20183;-86
2022/11/15 12:26:41;;;;;;;0.10;0.10;;;13.90;99.90;;;;;;5097559;28;20177;-87
2022/11/15 12:29:31;;;;;;;0.10;0.10;;;13.90;99.90;;;;;;5102274;28;20212;-86
2022/11/15 12:31:59;;;;;;;0.10;0.10;;;14.10;99.90;;;;;;5098522;28;20601;-86
2022/11/15 12:34:28;;;;;;;0.10;0.10;;;14.20;99.90;;;;;;5101209;28;20270;-86
2022/11/15 12:36:54;;;;;;;0.10;0.10;;;14.10;99.90;;;;;;5091624;28;20194;-86
2022/11/15 12:39:20;;;;;;;0.10;0.10;;;14.20;99.90;;;;;;5093192;28;20262;-86
2022/11/15 12:41:55;;;;;;;0.10;0.10;;;14.10;99.90;;;;;;5109005;28;20174;-86
2022/11/15 12:44:46;;;;;;;0.10;0.10;;;14.20;99.90;;;;;;5100703;28;20326;-85
2022/11/15 12:47:26;;;;;;;0.10;0.10;;;14.20;99.90;;;;;;5089584;28;20352;-86
2022/11/15 12:49:52;;;;;;;0.10;0.10;;;14.30;99.90;;;;;;5102753;28;20197;-86
2022/11/15 12:52:19;;;;;;;0.10;0.10;;;14.00;99.90;;;;;;5099616;28;20182;-86
2022/11/15 12:54:53;;;;;;;0.10;0.10;;;13.50;99.90;;;;;;5091374;28;20169;-86
2022/11/15 12:57:19;;;;;;;0.10;0.10;;;13.30;99.90;;;;;;5077580;28;20285;-85
2022/11/15 13:00:22;;;;;;;0.10;0.10;;;13.40;99.90;;;;;;5081716;28;20400;-86
2022/11/15 13:02:48;;;;;;;0.10;0.10;;;13.20;99.90;;;;;;5084236;28;20188;-86
2022/11/15 13:05:22;;;;;;;0.10;0.10;;;13.30;99.90;;;;;;5098720;28;20208;-86
2022/11/15 13:07:48;;;;;;;0.10;0.10;;;13.50;99.90;;;;;;5094276;28;20182;-85
2022/11/15 13:10:13;;;;;;;0.10;0.10;;;13.60;99.90;;;;;;5097696;28;20292;-86
2022/11/15 13:12:45;;;;;;;0.10;0.10;;;13.60;99.90;;;;;;5103281;28;20635;-87
2022/11/15 13:15:13;;;;;;;0.10;0.10;;;13.80;99.90;;;;;;5099404;28;20261;-86
2022/11/15 13:17:47;;;;;;;0.10;0.10;;;13.70;99.90;;;;;;5095761;28;20188;-86
2022/11/15 13:20:15;;;;;;;0.10;0.10;;;13.70;99.90;;;;;;5096402;28;20195;-86
2022/11/15 13:22:58;;;;;;;0.10;0.10;;;13.80;99.90;;;;;;5107033;28;20196;-87
2022/11/15 13:25:38;;;;;;;0.10;0.10;;;13.90;99.90;;;;;;5082235;28;20190;-86